Hauptseite
METAR-TAF:

METAR-TAF

Flughäfen :

Flughafen Den Helder

Den Helder, Niederlande

Breite: 52-55N, Länge: 004-47E, Höhe: 0 m

Beobachtung

Neuester Wetterbericht von vor 23 Minuten, um 18:25 UTC
Wind 5 kt aus Ost
Temperatur 6°C
Luftfeuchtigkeit 93%
Luftdruck 1029 hPa
Sichtweite: 6000 m
feuchter Dunst, feuchter Dunst

METAR: EHKD 161825Z AUTO 08009KT 7000 BR NCD 06/05 Q1029 WHT 09005KT 6000 BR NSC

Zeit: 19:48 (18:48 UTC)

Prognose

Neuester Wetterbericht von vor 1 Stunde und 18 Minuten, um 17:30 UTC
Gültige Prognose vom 16 um 18 UTC bis 17 um 06 UTC
Wind 7 kt aus Ost
Sichtweite: 6000 m
feuchter Dunst
Wahrscheinlichkeit 40% :
Zeitweise
vom 16 um 18 UTC bis 16 um 21 UTC
Sichtweite: 2000 m
Aufgelockert bewölkt in der Höhe von 200 ft
Durchbrochene Bewölkung in der Höhe von 300 ft

TAF: EHKD 161730Z 1618/1706 10007KT 6000 BR PROB40 TEMPO 1618/1621 2000 SCT002 BKN003

Wetterbeobachtungen und Prognosen von mehr als 4000 Flughäfen (METAR und TAF Bericht).

Die verfügbaren Stationen werden durch gelbe und rote Markierungen auf der Karte dargestellt.

Führen Sie die Maus auf sie, um den Namen der Station zu sehen.

Darauf klicken, um die Beobachtung von Wetterbeobachtungen und Prognosen zu sehen.

Um die Karte zu ändern : klicken Sie auf den grünen Tasten mit einem schwarzen Kreuz Zum Vergrößern, auf den grünen Button mit einem Gedankenstrich zu verkleinern, oder auf die grünen Pfeile für benachbarte Karten.


METAR-TAF: